sensor_id;sensor_type;location;lat;lon;timestamp;pressure;altitude;pressure_sealevel;temperature;humidity
54172;BME280;40076;52.354;4.970;2023-04-15T00:00:12;100932.78;;;11.66;76.45
54172;BME280;40076;52.354;4.970;2023-04-15T00:02:37;100935.03;;;11.64;76.03
54172;BME280;40076;52.354;4.970;2023-04-15T00:05:04;100929.44;;;11.60;75.61
54172;BME280;40076;52.354;4.970;2023-04-15T00:07:29;100925.16;;;11.59;75.53
54172;BME280;40076;52.354;4.970;2023-04-15T00:09:55;100929.78;;;11.59;75.29
54172;BME280;40076;52.354;4.970;2023-04-15T00:12:25;100928.53;;;11.56;75.01
54172;BME280;40076;52.354;4.970;2023-04-15T00:14:51;100938.88;;;11.54;74.65
54172;BME280;40076;52.354;4.970;2023-04-15T00:17:16;100929.47;;;11.52;74.30
54172;BME280;40076;52.354;4.970;2023-04-15T00:19:42;100930.94;;;11.49;74.49
54172;BME280;40076;52.354;4.970;2023-04-15T00:22:09;100928.38;;;11.44;74.48
54172;BME280;40076;52.354;4.970;2023-04-15T00:24:35;100930.75;;;11.46;74.84
54172;BME280;40076;52.354;4.970;2023-04-15T00:27:01;100933.78;;;11.44;74.80
54172;BME280;40076;52.354;4.970;2023-04-15T00:29:26;100931.41;;;11.43;74.91
54172;BME280;40076;52.354;4.970;2023-04-15T00:31:51;100927.13;;;11.42;74.97
54172;BME280;40076;52.354;4.970;2023-04-15T00:34:17;100925.84;;;11.39;75.16
54172;BME280;40076;52.354;4.970;2023-04-15T00:36:42;100931.25;;;11.39;75.15
54172;BME280;40076;52.354;4.970;2023-04-15T00:39:08;100931.56;;;11.38;75.58
54172;BME280;40076;52.354;4.970;2023-04-15T00:41:34;100928.06;;;11.37;75.87
54172;BME280;40076;52.354;4.970;2023-04-15T00:44:00;100923.81;;;11.36;76.00
54172;BME280;40076;52.354;4.970;2023-04-15T00:46:27;100928.41;;;11.36;76.27
54172;BME280;40076;52.354;4.970;2023-04-15T00:48:55;100934.13;;;11.34;76.46
54172;BME280;40076;52.354;4.970;2023-04-15T00:51:20;100931.75;;;11.33;76.60
54172;BME280;40076;52.354;4.970;2023-04-15T00:53:46;100934.78;;;11.31;76.66
54172;BME280;40076;52.354;4.970;2023-04-15T00:56:12;100934.94;;;11.26;76.80
54172;BME280;40076;52.354;4.970;2023-04-15T00:58:37;100936.84;;;11.26;77.17
54172;BME280;40076;52.354;4.970;2023-04-15T01:01:03;100944.16;;;11.25;77.27
54172;BME280;40076;52.354;4.970;2023-04-15T01:03:28;100939.88;;;11.24;77.49
54172;BME280;40076;52.354;4.970;2023-04-15T01:05:54;100939.88;;;11.24;77.56
54172;BME280;40076;52.354;4.970;2023-04-15T01:08:28;100940.53;;;11.21;78.02
54172;BME280;40076;52.354;4.970;2023-04-15T01:11:00;100940.53;;;11.21;78.16
54172;BME280;40076;52.354;4.970;2023-04-15T01:13:28;100943.25;;;11.21;78.62
54172;BME280;40076;52.354;4.970;2023-04-15T01:15:55;100945.16;;;11.20;78.85
54172;BME280;40076;52.354;4.970;2023-04-15T01:18:22;100936.06;;;11.16;79.06
54172;BME280;40076;52.354;4.970;2023-04-15T01:20:48;100940.69;;;11.16;79.33
54172;BME280;40076;52.354;4.970;2023-04-15T01:23:13;100942.59;;;11.15;79.87
54172;BME280;40076;52.354;4.970;2023-04-15T01:25:40;100943.69;;;11.14;80.30
54172;BME280;40076;52.354;4.970;2023-04-15T01:28:06;100941.78;;;11.15;80.60
54172;BME280;40076;52.354;4.970;2023-04-15T01:30:33;100937.50;;;11.14;80.97
54172;BME280;40076;52.354;4.970;2023-04-15T01:32:59;100946.25;;;11.11;80.83
54172;BME280;40076;52.354;4.970;2023-04-15T01:35:25;100940.38;;;11.09;80.86
54172;BME280;40076;52.354;4.970;2023-04-15T01:37:51;100937.19;;;11.07;81.33
54172;BME280;40076;52.354;4.970;2023-04-15T01:40:18;100949.13;;;11.06;81.83
54172;BME280;40076;52.354;4.970;2023-04-15T01:42:43;100943.25;;;11.04;83.44
54172;BME280;40076;52.354;4.970;2023-04-15T01:45:09;100954.06;;;11.04;84.76
54172;BME280;40076;52.354;4.970;2023-04-15T01:47:34;100946.25;;;11.02;86.31
54172;BME280;40076;52.354;4.970;2023-04-15T01:50:00;100955.78;;;11.00;86.99
54172;BME280;40076;52.354;4.970;2023-04-15T01:52:25;100947.53;;;10.96;87.95
54172;BME280;40076;52.354;4.970;2023-04-15T01:54:50;100951.34;;;10.95;88.81
54172;BME280;40076;52.354;4.970;2023-04-15T01:57:16;100952.47;;;10.94;88.80
54172;BME280;40076;52.354;4.970;2023-04-15T01:59:41;100955.03;;;10.91;89.09
54172;BME280;40076;52.354;4.970;2023-04-15T02:02:06;100955.94;;;10.86;90.08
54172;BME280;40076;52.354;4.970;2023-04-15T02:04:32;100951.97;;;10.83;89.74
54172;BME280;40076;52.354;4.970;2023-04-15T02:06:58;100949.91;;;10.80;90.55
54172;BME280;40076;52.354;4.970;2023-04-15T02:09:24;100957.84;;;10.77;90.81
54172;BME280;40076;52.354;4.970;2023-04-15T02:11:50;100952.28;;;10.73;91.14
54172;BME280;40076;52.354;4.970;2023-04-15T02:14:17;100963.22;;;10.68;91.12
54172;BME280;40076;52.354;4.970;2023-04-15T02:16:42;100960.38;;;10.65;91.37
54172;BME280;40076;52.354;4.970;2023-04-15T02:19:07;100961.00;;;10.62;92.21
54172;BME280;40076;52.354;4.970;2023-04-15T02:21:33;100957.84;;;10.60;92.65
54172;BME280;40076;52.354;4.970;2023-04-15T02:23:59;100964.34;;;10.59;93.02
54172;BME280;40076;52.354;4.970;2023-04-15T02:26:26;100974.38;;;10.58;93.49
54172;BME280;40076;52.354;4.970;2023-04-15T02:28:51;100958.78;;;10.55;93.87
54172;BME280;40076;52.354;4.970;2023-04-15T02:31:17;100967.19;;;10.54;94.13
54172;BME280;40076;52.354;4.970;2023-04-15T02:33:42;100966.53;;;10.48;94.79
54172;BME280;40076;52.354;4.970;2023-04-15T02:36:07;100966.06;;;10.46;94.95
54172;BME280;40076;52.354;4.970;2023-04-15T02:38:34;100976.72;;;10.42;95.51
54172;BME280;40076;52.354;4.970;2023-04-15T02:40:59;100971.13;;;10.39;95.88
54172;BME280;40076;52.354;4.970;2023-04-15T02:43:24;100970.66;;;10.37;96.12
54172;BME280;40076;52.354;4.970;2023-04-15T02:45:50;100974.47;;;10.36;96.46
54172;BME280;40076;52.354;4.970;2023-04-15T02:48:16;100984.47;;;10.35;96.78
54172;BME280;40076;52.354;4.970;2023-04-15T02:50:44;100985.59;;;10.34;96.87
54172;BME280;40076;52.354;4.970;2023-04-15T02:53:09;100989.09;;;10.35;97.27
54172;BME280;40076;52.354;4.970;2023-04-15T02:55:35;100987.19;;;10.35;97.44
54172;BME280;40076;52.354;4.970;2023-04-15T02:58:01;100995.59;;;10.34;97.56
54172;BME280;40076;52.354;4.970;2023-04-15T03:00:26;100999.09;;;10.34;98.09
54172;BME280;40076;52.354;4.970;2023-04-15T03:02:57;100995.91;;;10.32;98.28
54172;BME280;40076;52.354;4.970;2023-04-15T03:05:23;100999.41;;;10.33;98.21
54172;BME280;40076;52.354;4.970;2023-04-15T03:07:51;101001.28;;;10.32;98.56
54172;BME280;40076;52.354;4.970;2023-04-15T03:10:16;101003.84;;;10.29;99.13
54172;BME280;40076;52.354;4.970;2023-04-15T03:12:42;101003.03;;;10.28;99.63
54172;BME280;40076;52.354;4.970;2023-04-15T03:15:08;101000.66;;;10.27;99.84
54172;BME280;40076;52.354;4.970;2023-04-15T03:17:33;101015.06;;;10.22;100.00
54172;BME280;40076;52.354;4.970;2023-04-15T03:20:01;101014.31;;;10.22;100.00
54172;BME280;40076;52.354;4.970;2023-04-15T03:22:26;101023.59;;;10.16;100.00
54172;BME280;40076;52.354;4.970;2023-04-15T03:24:52;101025.34;;;10.12;100.00
54172;BME280;40076;52.354;4.970;2023-04-15T03:27:17;101018.03;;;10.12;100.00
54172;BME280;40076;52.354;4.970;2023-04-15T03:29:42;101021.97;;;10.06;100.00
54172;BME280;40076;52.354;4.970;2023-04-15T03:32:08;101033.88;;;10.05;100.00
54172;BME280;40076;52.354;4.970;2023-04-15T03:34:33;101025.28;;;10.03;100.00
54172;BME280;40076;52.354;4.970;2023-04-15T03:36:58;101032.09;;;10.00;100.00
54172;BME280;40076;52.354;4.970;2023-04-15T03:39:23;101033.53;;;9.98;100.00
54172;BME280;40076;52.354;4.970;2023-04-15T03:41:49;101033.84;;;9.96;100.00
54172;BME280;40076;52.354;4.970;2023-04-15T03:44:14;101036.03;;;9.94;100.00
54172;BME280;40076;52.354;4.970;2023-04-15T03:46:39;101042.53;;;9.93;100.00
54172;BME280;40076;52.354;4.970;2023-04-15T03:49:06;101039.38;;;9.91;100.00
54172;BME280;40076;52.354;4.970;2023-04-15T03:51:31;101044.28;;;9.89;100.00
54172;BME280;40076;52.354;4.970;2023-04-15T03:53:56;101048.06;;;9.88;100.00
54172;BME280;40076;52.354;4.970;2023-04-15T03:56:23;101038.38;;;9.87;100.00
54172;BME280;40076;52.354;4.970;2023-04-15T03:58:48;101042.19;;;9.86;100.00
54172;BME280;40076;52.354;4.970;2023-04-15T04:01:13;101045.97;;;9.85;100.00
54172;BME280;40076;52.354;4.970;2023-04-15T04:03:39;101052.47;;;9.84;100.00
54172;BME280;40076;52.354;4.970;2023-04-15T04:06:04;101057.41;;;9.82;100.00
54172;BME280;40076;52.354;4.970;2023-04-15T04:08:30;101059.13;;;9.78;100.00
54172;BME280;40076;52.354;4.970;2023-04-15T04:10:55;101062.91;;;9.77;100.00
54172;BME280;40076;52.354;4.970;2023-04-15T04:13:21;101072.13;;;9.76;100.00
54172;BME280;40076;52.354;4.970;2023-04-15T04:15:46;101065.16;;;9.75;100.00
54172;BME280;40076;52.354;4.970;2023-04-15T04:18:11;101075.75;;;9.72;100.00
54172;BME280;40076;52.354;4.970;2023-04-15T04:20:36;101071.75;;;9.69;100.00
54172;BME280;40076;52.354;4.970;2023-04-15T04:23:02;101077.47;;;9.67;100.00
54172;BME280;40076;52.354;4.970;2023-04-15T04:25:27;101078.88;;;9.65;100.00
54172;BME280;40076;52.354;4.970;2023-04-15T04:27:52;101085.38;;;9.64;100.00
54172;BME280;40076;52.354;4.970;2023-04-15T04:30:18;101079.00;;;9.60;100.00
54172;BME280;40076;52.354;4.970;2023-04-15T04:32:43;101090.38;;;9.57;100.00
54172;BME280;40076;52.354;4.970;2023-04-15T04:35:08;101088.28;;;9.54;100.00
54172;BME280;40076;52.354;4.970;2023-04-15T04:37:34;101088.91;;;9.51;100.00
54172;BME280;40076;52.354;4.970;2023-04-15T04:39:59;101088.13;;;9.50;100.00
54172;BME280;40076;52.354;4.970;2023-04-15T04:42:24;101099.22;;;9.49;100.00
54172;BME280;40076;52.354;4.970;2023-04-15T04:44:50;101110.28;;;9.47;100.00
54172;BME280;40076;52.354;4.970;2023-04-15T04:47:15;101107.44;;;9.44;100.00
54172;BME280;40076;52.354;4.970;2023-04-15T04:49:40;101117.72;;;9.42;100.00
54172;BME280;40076;52.354;4.970;2023-04-15T04:52:06;101117.22;;;9.40;100.00
54172;BME280;40076;52.354;4.970;2023-04-15T04:54:32;101114.84;;;9.38;100.00
54172;BME280;40076;52.354;4.970;2023-04-15T04:56:57;101133.72;;;9.38;100.00
54172;BME280;40076;52.354;4.970;2023-04-15T04:59:23;101129.41;;;9.37;100.00
54172;BME280;40076;52.354;4.970;2023-04-15T05:01:48;101142.91;;;9.37;100.00
54172;BME280;40076;52.354;4.970;2023-04-15T05:04:14;101142.41;;;9.35;100.00
54172;BME280;40076;52.354;4.970;2023-04-15T05:06:39;101144.09;;;9.31;100.00
54172;BME280;40076;52.354;4.970;2023-04-15T05:09:04;101144.72;;;9.28;100.00
54172;BME280;40076;52.354;4.970;2023-04-15T05:11:30;101153.91;;;9.27;100.00
54172;BME280;40076;52.354;4.970;2023-04-15T05:13:55;101147.69;;;9.26;100.00
54172;BME280;40076;52.354;4.970;2023-04-15T05:16:22;101155.00;;;9.26;100.00
54172;BME280;40076;52.354;4.970;2023-04-15T05:18:47;101167.97;;;9.24;100.00
54172;BME280;40076;52.354;4.970;2023-04-15T05:21:12;101172.09;;;9.21;100.00
54172;BME280;40076;52.354;4.970;2023-04-15T05:23:38;101176.19;;;9.19;100.00
54172;BME280;40076;52.354;4.970;2023-04-15T05:26:04;101176.19;;;9.19;100.00
54172;BME280;40076;52.354;4.970;2023-04-15T05:28:29;101182.16;;;9.16;100.00
54172;BME280;40076;52.354;4.970;2023-04-15T05:30:55;101186.56;;;9.12;100.00
54172;BME280;40076;52.354;4.970;2023-04-15T05:33:20;101188.47;;;9.11;100.00
54172;BME280;40076;52.354;4.970;2023-04-15T05:35:45;101204.94;;;9.10;100.00
54172;BME280;40076;52.354;4.970;2023-04-15T05:38:12;101200.34;;;9.10;100.00
54172;BME280;40076;52.354;4.970;2023-04-15T05:40:37;101204.13;;;9.09;100.00
54172;BME280;40076;52.354;4.970;2023-04-15T05:43:02;101204.94;;;9.10;100.00
54172;BME280;40076;52.354;4.970;2023-04-15T05:45:28;101204.94;;;9.10;100.00
54172;BME280;40076;52.354;4.970;2023-04-15T05:47:53;101208.81;;;9.04;100.00
54172;BME280;40076;52.354;4.970;2023-04-15T05:50:19;101215.22;;;9.08;100.00
54172;BME280;40076;52.354;4.970;2023-04-15T05:52:45;101217.13;;;9.07;100.00
54172;BME280;40076;52.354;4.970;2023-04-15T05:55:10;101219.81;;;9.07;100.00
54172;BME280;40076;52.354;4.970;2023-04-15T05:57:36;101218.69;;;9.08;100.00
54172;BME280;40076;52.354;4.970;2023-04-15T06:00:03;101229.47;;;9.08;100.00
54172;BME280;40076;52.354;4.970;2023-04-15T06:02:29;101238.69;;;9.07;100.00
54172;BME280;40076;52.354;4.970;2023-04-15T06:04:55;101246.78;;;9.07;100.00
54172;BME280;40076;52.354;4.970;2023-04-15T06:07:21;101248.06;;;9.10;100.00
54172;BME280;40076;52.354;4.970;2023-04-15T06:09:47;101250.47;;;9.11;100.00
54172;BME280;40076;52.354;4.970;2023-04-15T06:12:12;101265.03;;;9.10;100.00
54172;BME280;40076;52.354;4.970;2023-04-15T06:14:38;101270.44;;;9.10;100.00
54172;BME280;40076;52.354;4.970;2023-04-15T06:17:04;101272.84;;;9.12;100.00
54172;BME280;40076;52.354;4.970;2023-04-15T06:19:29;101275.53;;;9.12;100.00
54172;BME280;40076;52.354;4.970;2023-04-15T06:21:56;101277.13;;;9.13;100.00
54172;BME280;40076;52.354;4.970;2023-04-15T06:24:22;101284.94;;;9.14;100.00
54172;BME280;40076;52.354;4.970;2023-04-15T06:26:47;101292.41;;;9.17;100.00
54172;BME280;40076;52.354;4.970;2023-04-15T06:29:13;101289.72;;;9.17;100.00
54172;BME280;40076;52.354;4.970;2023-04-15T06:31:38;101292.41;;;9.17;100.00
54172;BME280;40076;52.354;4.970;2023-04-15T06:34:03;101293.72;;;9.20;100.00
54172;BME280;40076;52.354;4.970;2023-04-15T06:36:29;101297.50;;;9.19;100.00
54172;BME280;40076;52.354;4.970;2023-04-15T06:38:54;101306.41;;;9.19;100.00
54172;BME280;40076;52.354;4.970;2023-04-15T06:41:21;101311.50;;;9.21;100.00
54172;BME280;40076;52.354;4.970;2023-04-15T06:43:46;101313.09;;;9.22;100.00
54172;BME280;40076;52.354;4.970;2023-04-15T06:46:12;101314.19;;;9.21;100.00
54172;BME280;40076;52.354;4.970;2023-04-15T06:48:37;101310.69;;;9.20;100.00
54172;BME280;40076;52.354;4.970;2023-04-15T06:51:03;101317.97;;;9.20;100.00
54172;BME280;40076;52.354;4.970;2023-04-15T06:53:28;101313.09;;;9.22;100.00
54172;BME280;40076;52.354;4.970;2023-04-15T06:55:54;101317.69;;;9.21;100.00
54172;BME280;40076;52.354;4.970;2023-04-15T06:58:19;101314.09;;;9.26;100.00
54172;BME280;40076;52.354;4.970;2023-04-15T07:00:45;101332.38;;;9.29;100.00
54172;BME280;40076;52.354;4.970;2023-04-15T07:03:11;101330.16;;;9.31;100.00
54172;BME280;40076;52.354;4.970;2023-04-15T07:05:37;101332.28;;;9.34;100.00
54172;BME280;40076;52.354;4.970;2023-04-15T07:08:03;101332.50;;;9.38;100.00
54172;BME280;40076;52.354;4.970;2023-04-15T07:10:28;101338.38;;;9.40;100.00
54172;BME280;40076;52.354;4.970;2023-04-15T07:12:54;101349.09;;;9.45;100.00
54172;BME280;40076;52.354;4.970;2023-04-15T07:15:19;101343.38;;;9.46;100.00
54172;BME280;40076;52.354;4.970;2023-04-15T07:17:45;101353.28;;;9.51;100.00
54172;BME280;40076;52.354;4.970;2023-04-15T07:20:11;101357.75;;;9.55;100.00
54172;BME280;40076;52.354;4.970;2023-04-15T07:22:37;101356.69;;;9.56;100.00
54172;BME280;40076;52.354;4.970;2023-04-15T07:25:02;101372.56;;;9.58;100.00
54172;BME280;40076;52.354;4.970;2023-04-15T07:27:28;101368.16;;;9.62;100.00
54172;BME280;40076;52.354;4.970;2023-04-15T07:29:53;101377.84;;;9.63;100.00
54172;BME280;40076;52.354;4.970;2023-04-15T07:32:18;101382.38;;;9.67;100.00
54172;BME280;40076;52.354;4.970;2023-04-15T07:34:44;101386.34;;;9.70;100.00
54172;BME280;40076;52.354;4.970;2023-04-15T07:37:09;101393.34;;;9.71;100.00
54172;BME280;40076;52.354;4.970;2023-04-15T07:39:35;101391.16;;;9.73;100.00
54172;BME280;40076;52.354;4.970;2023-04-15T07:42:01;101392.97;;;9.78;100.00
54172;BME280;40076;52.354;4.970;2023-04-15T07:44:26;101397.75;;;9.81;100.00
54172;BME280;40076;52.354;4.970;2023-04-15T07:46:52;101402.59;;;9.84;100.00
54172;BME280;40076;52.354;4.970;2023-04-15T07:49:17;101405.75;;;9.86;100.00
54172;BME280;40076;52.354;4.970;2023-04-15T07:51:43;101406.78;;;9.90;100.00
54172;BME280;40076;52.354;4.970;2023-04-15T07:54:09;101412.16;;;9.90;100.00
54172;BME280;40076;52.354;4.970;2023-04-15T07:56:34;101418.06;;;9.92;100.00
54172;BME280;40076;52.354;4.970;2023-04-15T07:58:59;101413.97;;;9.94;100.00
54172;BME280;40076;52.354;4.970;2023-04-15T08:01:26;101422.56;;;9.96;100.00
54172;BME280;40076;52.354;4.970;2023-04-15T08:03:52;101433.56;;;10.00;100.00
54172;BME280;40076;52.354;4.970;2023-04-15T08:06:17;101435.78;;;9.98;100.00
54172;BME280;40076;52.354;4.970;2023-04-15T08:08:42;101446.75;;;10.01;100.00
54172;BME280;40076;52.354;4.970;2023-04-15T08:11:08;101444.84;;;10.02;100.00
54172;BME280;40076;52.354;4.970;2023-04-15T08:13:33;101446.69;;;10.06;100.00
54172;BME280;40076;52.354;4.970;2023-04-15T08:16:19;101446.84;;;10.10;100.00
54172;BME280;40076;52.354;4.970;2023-04-15T08:18:46;101454.38;;;10.13;100.00
54172;BME280;40076;52.354;4.970;2023-04-15T08:21:12;101461.38;;;10.14;100.00
54172;BME280;40076;52.354;4.970;2023-04-15T08:23:38;101462.16;;;10.15;100.00
54172;BME280;40076;52.354;4.970;2023-04-15T08:26:04;101465.34;;;10.17;100.00
54172;BME280;40076;52.354;4.970;2023-04-15T08:28:29;101468.59;;;10.19;100.00
54172;BME280;40076;52.354;4.970;2023-04-15T08:30:55;101472.91;;;10.20;100.00
54172;BME280;40076;52.354;4.970;2023-04-15T08:33:20;101469.59;;;10.23;100.00
54172;BME280;40076;52.354;4.970;2023-04-15T08:35:48;101473.59;;;10.25;100.00
54172;BME280;40076;52.354;4.970;2023-04-15T08:38:13;101473.47;;;10.30;100.00
54172;BME280;40076;52.354;4.970;2023-04-15T08:40:43;101486.19;;;10.30;100.00
54172;BME280;40076;52.354;4.970;2023-04-15T08:43:11;101485.09;;;10.31;100.00
54172;BME280;40076;52.354;4.970;2023-04-15T08:45:38;101494.78;;;10.32;100.00
54172;BME280;40076;52.354;4.970;2023-04-15T08:48:04;101496.91;;;10.35;100.00
54172;BME280;40076;52.354;4.970;2023-04-15T08:50:31;101502.81;;;10.37;100.00
54172;BME280;40076;52.354;4.970;2023-04-15T08:52:58;101502.81;;;10.37;100.00
54172;BME280;40076;52.354;4.970;2023-04-15T08:55:29;101503.00;;;10.40;100.00
54172;BME280;40076;52.354;4.970;2023-04-15T08:57:57;101505.28;;;10.47;100.00
54172;BME280;40076;52.354;4.970;2023-04-15T09:00:23;101507.53;;;10.45;100.00
54172;BME280;40076;52.354;4.970;2023-04-15T09:02:48;101517.19;;;10.46;100.00
54172;BME280;40076;52.354;4.970;2023-04-15T09:05:13;101515.50;;;10.50;100.00
54172;BME280;40076;52.354;4.970;2023-04-15T09:07:39;101517.31;;;10.55;100.00
54172;BME280;40076;52.354;4.970;2023-04-15T09:10:05;101526.41;;;10.59;100.00
54172;BME280;40076;52.354;4.970;2023-04-15T09:12:34;101525.00;;;10.61;100.00
54172;BME280;40076;52.354;4.970;2023-04-15T09:15:00;101523.31;;;10.65;100.00
54172;BME280;40076;52.354;4.970;2023-04-15T09:17:26;101533.19;;;10.70;100.00
54172;BME280;40076;52.354;4.970;2023-04-15T09:20:07;101539.91;;;10.72;100.00
54172;BME280;40076;52.354;4.970;2023-04-15T09:22:32;101543.59;;;10.76;100.00
54172;BME280;40076;52.354;4.970;2023-04-15T09:24:58;101546.81;;;10.78;100.00
54172;BME280;40076;52.354;4.970;2023-04-15T09:27:23;101547.81;;;10.82;100.00
54172;BME280;40076;52.354;4.970;2023-04-15T09:29:52;101556.41;;;10.84;100.00
54172;BME280;40076;52.354;4.970;2023-04-15T09:32:18;101559.63;;;10.87;100.00
54172;BME280;40076;52.354;4.970;2023-04-15T09:34:45;101550.91;;;10.90;100.00
54172;BME280;40076;52.354;4.970;2023-04-15T09:37:11;101556.31;;;10.90;100.00
54172;BME280;40076;52.354;4.970;2023-04-15T09:39:47;101559.81;;;10.90;100.00
54172;BME280;40076;52.354;4.970;2023-04-15T09:42:14;101561.00;;;10.98;100.00
54172;BME280;40076;52.354;4.970;2023-04-15T09:44:41;101565.28;;;10.99;100.00
54172;BME280;40076;52.354;4.970;2023-04-15T09:47:07;101569.31;;;11.01;100.00
54172;BME280;40076;52.354;4.970;2023-04-15T09:49:32;101572.22;;;11.05;100.00
54172;BME280;40076;52.354;4.970;2023-04-15T09:52:01;101581.59;;;11.07;100.00
54172;BME280;40076;52.354;4.970;2023-04-15T09:54:35;101582.63;;;11.11;100.00
54172;BME280;40076;52.354;4.970;2023-04-15T09:57:05;101578.00;;;11.12;100.00
54172;BME280;40076;52.354;4.970;2023-04-15T09:59:31;101586.00;;;11.17;100.00
54172;BME280;40076;52.354;4.970;2023-04-15T10:01:56;101594.13;;;11.17;100.00
54172;BME280;40076;52.354;4.970;2023-04-15T10:04:22;101592.09;;;11.22;100.00
54172;BME280;40076;52.354;4.970;2023-04-15T10:06:48;101592.81;;;11.28;100.00
54172;BME280;40076;52.354;4.970;2023-04-15T10:09:13;101600.13;;;11.28;100.00
54172;BME280;40076;52.354;4.970;2023-04-15T10:11:39;101591.38;;;11.31;100.00
54172;BME280;40076;52.354;4.970;2023-04-15T10:14:06;101598.69;;;11.30;100.00
54172;BME280;40076;52.354;4.970;2023-04-15T10:16:33;101605.09;;;11.34;100.00
54172;BME280;40076;52.354;4.970;2023-04-15T10:19:01;101601.31;;;11.35;100.00
54172;BME280;40076;52.354;4.970;2023-04-15T10:21:27;101599.06;;;11.37;100.00
54172;BME280;40076;52.354;4.970;2023-04-15T10:23:52;101595.75;;;11.40;100.00
54172;BME280;40076;52.354;4.970;2023-04-15T10:26:18;101592.94;;;11.45;100.00
54172;BME280;40076;52.354;4.970;2023-04-15T10:28:44;101603.66;;;11.50;100.00
54172;BME280;40076;52.354;4.970;2023-04-15T10:31:13;101608.94;;;11.55;100.00
54172;BME280;40076;52.354;4.970;2023-04-15T10:33:40;101620.28;;;11.57;100.00
54172;BME280;40076;52.354;4.970;2023-04-15T10:36:06;101619.66;;;11.60;100.00
54172;BME280;40076;52.354;4.970;2023-04-15T10:41:17;101617.63;;;11.66;100.00
54172;BME280;40076;52.354;4.970;2023-04-15T10:43:50;101624.66;;;11.67;100.00
54172;BME280;40076;52.354;4.970;2023-04-15T10:46:42;101627.03;;;11.69;100.00
54172;BME280;40076;52.354;4.970;2023-04-15T10:49:15;101629.94;;;11.72;100.00
54172;BME280;40076;52.354;4.970;2023-04-15T10:51:45;101630.16;;;11.76;100.00
54172;BME280;40076;52.354;4.970;2023-04-15T10:59:28;101633.84;;;11.80;100.00
54172;BME280;40076;52.354;4.970;2023-04-15T11:01:55;101644.56;;;11.85;100.00
54172;BME280;40076;52.354;4.970;2023-04-15T11:04:55;101631.53;;;11.87;100.00
54172;BME280;40076;52.354;4.970;2023-04-15T11:07:36;101643.66;;;11.89;100.00
54172;BME280;40076;52.354;4.970;2023-04-15T11:10:03;101646.03;;;11.91;100.00
54172;BME280;40076;52.354;4.970;2023-04-15T11:12:35;101644.47;;;11.90;100.00
54172;BME280;40076;52.354;4.970;2023-04-15T11:15:33;101648.13;;;11.94;100.00
54172;BME280;40076;52.354;4.970;2023-04-15T11:20:32;101662.66;;;11.98;100.00
54172;BME280;40076;52.354;4.970;2023-04-15T11:22:58;101658.22;;;12.02;100.00
54172;BME280;40076;52.354;4.970;2023-04-15T11:25:25;101660.00;;;12.07;100.00
54172;BME280;40076;52.354;4.970;2023-04-15T11:27:52;101667.03;;;12.08;100.00
54172;BME280;40076;52.354;4.970;2023-04-15T11:30:23;101673.75;;;12.10;100.00
54172;BME280;40076;52.354;4.970;2023-04-15T11:32:50;101673.75;;;12.10;100.00
54172;BME280;40076;52.354;4.970;2023-04-15T11:35:16;101665.78;;;12.14;100.00
54172;BME280;40076;52.354;4.970;2023-04-15T11:37:43;101676.31;;;12.15;100.00
54172;BME280;40076;52.354;4.970;2023-04-15T11:40:09;101675.22;;;12.16;100.00
54172;BME280;40076;52.354;4.970;2023-04-15T11:42:34;101682.09;;;12.22;100.00
54172;BME280;40076;52.354;4.970;2023-04-15T11:45:10;101687.72;;;12.26;100.00
54172;BME280;40076;52.354;4.970;2023-04-15T11:47:37;101691.09;;;12.31;100.00
54172;BME280;40076;52.354;4.970;2023-04-15T11:50:15;101695.91;;;12.34;99.25
54172;BME280;40076;52.354;4.970;2023-04-15T11:52:55;101685.88;;;12.35;98.02
54172;BME280;40076;52.354;4.970;2023-04-15T11:55:21;101694.16;;;12.38;98.05
54172;BME280;40076;52.354;4.970;2023-04-15T11:57:48;101680.00;;;12.42;97.13
54172;BME280;40076;52.354;4.970;2023-04-15T12:00:14;101684.50;;;12.46;97.62
54172;BME280;40076;52.354;4.970;2023-04-15T12:02:42;101678.47;;;12.49;97.57
54172;BME280;40076;52.354;4.970;2023-04-15T12:05:08;101687.56;;;12.53;97.57
54172;BME280;40076;52.354;4.970;2023-04-15T12:07:56;101691.56;;;12.56;96.02
54172;BME280;40076;52.354;4.970;2023-04-15T12:10:25;101690.56;;;12.52;95.08
54172;BME280;40076;52.354;4.970;2023-04-15T12:12:51;101704.31;;;12.55;94.86
54172;BME280;40076;52.354;4.970;2023-04-15T12:15:21;101709.59;;;12.60;94.36
54172;BME280;40076;52.354;4.970;2023-04-15T12:17:46;101699.56;;;12.61;92.87
54172;BME280;40076;52.354;4.970;2023-04-15T12:20:11;101701.97;;;12.62;93.54
54172;BME280;40076;52.354;4.970;2023-04-15T12:22:37;101703.88;;;12.62;93.00
54172;BME280;40076;52.354;4.970;2023-04-15T12:25:02;101716.31;;;12.63;92.15
54172;BME280;40076;52.354;4.970;2023-04-15T12:27:28;101714.09;;;12.65;91.88
54172;BME280;40076;52.354;4.970;2023-04-15T12:30:05;101726.72;;;12.69;93.06
54172;BME280;40076;52.354;4.970;2023-04-15T12:32:34;101730.72;;;12.72;92.49
54172;BME280;40076;52.354;4.970;2023-04-15T12:34:59;101730.59;;;12.77;91.38
54172;BME280;40076;52.354;4.970;2023-04-15T12:37:25;101740.31;;;12.78;90.62
54172;BME280;40076;52.354;4.970;2023-04-15T12:39:51;101738.13;;;12.80;90.31
54172;BME280;40076;52.354;4.970;2023-04-15T12:42:18;101737.00;;;12.81;90.42
54172;BME280;40076;52.354;4.970;2023-04-15T12:44:43;101746.25;;;12.80;91.10
54172;BME280;40076;52.354;4.970;2023-04-15T12:47:10;101729.34;;;12.83;91.84
54172;BME280;40076;52.354;4.970;2023-04-15T12:49:36;101740.69;;;12.85;92.45
54172;BME280;40076;52.354;4.970;2023-04-15T12:52:02;101742.78;;;12.88;92.59
54172;BME280;40076;52.354;4.970;2023-04-15T12:54:29;101748.22;;;12.88;93.29